CYLW

Kelowna International Airport

Kelowna, British Columbia, Canada
TAF CYLW 191838Z 1919/2007 VRB03KT P6SM BKN220 BECMG 1919/1921 34007KT BECMG 2001/2003 VRB03KT FM200500 VRB03KT P6SM BKN100 RMK FCST BASED ON AUTO OBS. NXT FCST BY 200100Z
Issued Valid From Valid To
Sep-19 @ 18:38 UTC
(4 hours ago)
Sep-19 @ 19:00 UTC
(4 hours ago)
Sep-20 @ 07:00 UTC
(in 8 hours)
Sep-19 @ 19:00 to Sep-20 @ 07:00
TAF CYLW 191838Z 1919/2007 VRB03KT P6SM BKN220
Wind Visibility Clouds
Variable at 3 knots Greater than 6 miles
  • Broken at 22,000' AGL
Becoming Sep-19 @ 19:00 to Sep-20 @ 01:00
BECMG 1919/1921 34007KT
Wind Visibility Clouds
340° at 7 knots Greater than 6 miles
  • Broken at 22,000' AGL
Becoming Sep-20 @ 01:00 to Sep-20 @ 05:00
BECMG 2001/2003 VRB03KT
Wind Visibility Clouds
Variable at 3 knots Greater than 6 miles
  • Broken at 22,000' AGL
From Sep-20 @ 05:00 to Sep-20 @ 07:00
FM200500 VRB03KT P6SM BKN100 RMK FCST BASED ON AUTO OBS. NXT FCST BY 200100Z
Wind Visibility Clouds
Variable at 3 knots Greater than 6 miles
  • Broken at 10,000' AGL
TAF CYLW 191838Z 1919/2007 VRB03KT P6SM BKN220 BECMG 1919/1921 34007KT BECMG 2001/2003 VRB03KT FM200500 VRB03KT P6SM BKN100 RMK FCST BASED ON AUTO OBS. NXT FCST BY 200100Z
Issued Sep-19 @ 18:38 UTC
(4 hours ago)
Valid From Sep-19 @ 19:00 UTC
(4 hours ago)
Valid To Sep-20 @ 07:00 UTC
(in 8 hours)
Sep-19 @ 19:00 - Sep-20 @ 07:00
Wind Visibility
Variable at 3 knots Greater than 6 miles
Clouds
  • Broken at 22,000' AGL
Becoming Sep-19 @ 19:00 - Sep-20 @ 01:00
Wind Visibility
340° at 7 knots Greater than 6 miles
Clouds
  • Broken at 22,000' AGL
Becoming Sep-20 @ 01:00 - Sep-20 @ 05:00
Wind Visibility
Variable at 3 knots Greater than 6 miles
Clouds
  • Broken at 22,000' AGL
From Sep-20 @ 05:00 - Sep-20 @ 07:00
Wind Visibility
Variable at 3 knots Greater than 6 miles
Clouds
  • Broken at 10,000' AGL